F/V Argentario — FGPE — position and weather

sailwx.info

Track history (hours):
 
Tides and Currents Weather Stations Pressure Air Temp Water Temp Dewpoint Dewpoint Depression Visibility Wind Speed Wind Dir Waves Ship Positions

F/V Argentario

Last reported at 2015-Sep-04 06:27 UTC. Time now 2015-Sep-04 10:30 UTC.
Position N 46°44' W 002°21'.

Length 22 m; draft 3.4 m.

Type: Fishing. MMSI: 228975000.

Date/timePositionNaut miles runAvg speedWind from/ knotsBaromVisibWave heightAir tempDewpointWater temp
2015-Sep-04 06:27N 46°44' W 002°21'  
2015-Aug-29 02:25N 46°46' W 002°27'4 4.4
2015-Aug-29 01:32N 46°48' W 002°32'4 4.3
2015-Aug-29 00:33N 46°50' W 002°38'7 4.5
2015-Aug-28 23:03N 46°53' W 002°46'3 4.4
2015-Aug-28 22:17N 46°55' W 002°51'4 4.1
2015-Aug-28 21:17N 46°57' W 002°56'4 4.3
2015-Aug-28 20:25N 46°59' W 003°01'4 4.4
2015-Aug-28 19:32N 47°00' W 003°06'5 4.4
2015-Aug-28 18:31N 47°02' W 003°12'5 4.5
2015-Aug-28 17:25N 47°05' W 003°18'4 4.7
2015-Aug-28 16:32N 47°07' W 003°23'10 9.0
2015-Aug-28 15:23N 47°12' W 003°37'8 9.1
2015-Aug-28 14:33N 47°15' W 003°47'9 9.3
2015-Aug-28 13:33N 47°20' W 003°59'9 9.2
2015-Aug-28 12:32N 47°24' W 004°11'16 2.6
2015-Aug-28 06:16N 47°31' W 004°33'17 1.0
2015-Aug-27 13:33N 47°46' W 004°20'  
Track history (hours):
 
Tides and Currents Weather Stations Pressure Air Temp Water Temp Dewpoint Dewpoint Depression Visibility Wind Speed Wind Dir Waves Ship Positions

F/V Argentario

Last reported at 2015-Sep-04 06:27 UTC. Time now 2015-Sep-04 10:30 UTC.
Position N 46°44' W 002°21'.

Length 22 m; draft 3.4 m.

Type: Fishing. MMSI: 228975000.

Date/timePositionNaut miles runAvg speedWind from/ knotsBaromVisibWave heightAir tempDewpointWater temp
2015-Sep-04 06:27N 46°44' W 002°21'  
2015-Aug-29 02:25N 46°46' W 002°27'4 4.4
2015-Aug-29 01:32N 46°48' W 002°32'4 4.3
2015-Aug-29 00:33N 46°50' W 002°38'7 4.5
2015-Aug-28 23:03N 46°53' W 002°46'3 4.4
2015-Aug-28 22:17N 46°55' W 002°51'4 4.1
2015-Aug-28 21:17N 46°57' W 002°56'4 4.3
2015-Aug-28 20:25N 46°59' W 003°01'4 4.4
2015-Aug-28 19:32N 47°00' W 003°06'5 4.4
2015-Aug-28 18:31N 47°02' W 003°12'5 4.5
2015-Aug-28 17:25N 47°05' W 003°18'4 4.7
2015-Aug-28 16:32N 47°07' W 003°23'10 9.0
2015-Aug-28 15:23N 47°12' W 003°37'8 9.1
2015-Aug-28 14:33N 47°15' W 003°47'9 9.3
2015-Aug-28 13:33N 47°20' W 003°59'9 9.2
2015-Aug-28 12:32N 47°24' W 004°11'16 2.6
2015-Aug-28 06:16N 47°31' W 004°33'17 1.0
2015-Aug-27 13:33N 47°46' W 004°20'  

Dump ship's entire track history